Time;durP1;ratioP1;P1;durP2;ratioP2;P2;SDS_P1;SDS_P2;PMS_P1;PMS_P2;Temp;Humidity;BMP_temperature;BMP_pressure;BME280_temperature;BME280_humidity;BME280_pressure;Samples;Min_cycle;Max_cycle;Signal;HPM_P1;HPM_P2
2023/07/25 00:00:26;;;;;;;7.85;4.93;;;19.10;84.70;;;18.11;100.00;95160.28;5011835;28;20714;-64
2023/07/25 00:02:52;;;;;;;6.95;5.20;;;19.10;84.70;;;18.10;100.00;95161.31;4996547;28;20077;-64
2023/07/25 00:05:17;;;;;;;8.18;5.57;;;19.10;84.60;;;18.06;100.00;95149.56;5012050;28;20125;-64
2023/07/25 00:07:43;;;;;;;6.75;4.93;;;19.10;84.60;;;18.04;100.00;95151.69;5011616;28;20073;-64
2023/07/25 00:10:09;;;;;;;9.75;4.95;;;19.00;84.70;;;18.01;100.00;95136.25;4997024;28;20115;-64
2023/07/25 00:12:35;;;;;;;10.88;5.55;;;19.10;84.70;;;18.03;100.00;95144.78;4999244;28;20041;-64
2023/07/25 00:15:02;;;;;;;6.30;5.05;;;19.10;84.70;;;18.01;100.00;95147.69;4994045;28;20061;-64
2023/07/25 00:17:28;;;;;;;8.82;5.40;;;19.10;84.70;;;17.99;100.00;95155.13;5009914;28;20060;-64
2023/07/25 00:19:54;;;;;;;8.18;5.25;;;19.10;84.70;;;17.95;100.00;95151.41;4998998;28;20113;-64
2023/07/25 00:22:19;;;;;;;7.13;4.93;;;19.10;84.80;;;17.95;100.00;95147.94;5030712;28;20062;-64
2023/07/25 00:24:45;;;;;;;10.45;5.60;;;19.00;84.90;;;17.93;100.00;95142.88;5010228;28;20061;-64
2023/07/25 00:27:11;;;;;;;6.85;5.25;;;19.10;84.90;;;17.92;100.00;95143.13;4999422;28;20124;-64
2023/07/25 00:29:36;;;;;;;7.80;4.95;;;19.00;84.90;;;17.88;100.00;95142.03;5009313;28;20069;-64
2023/07/25 00:32:03;;;;;;;6.70;5.15;;;18.90;85.00;;;17.86;100.00;95138.81;5029183;28;20033;-64
2023/07/25 00:34:28;;;;;;;7.43;5.68;;;19.00;84.90;;;17.86;100.00;95133.50;4999030;28;20118;-64
2023/07/25 00:36:54;;;;;;;7.30;5.20;;;19.00;84.90;;;17.85;100.00;95135.34;4981895;28;20124;-64
2023/07/25 00:39:20;;;;;;;11.77;5.38;;;19.00;84.80;;;17.84;100.00;95127.63;5010871;28;20053;-64
2023/07/25 00:41:46;;;;;;;7.20;4.78;;;19.00;84.70;;;17.83;100.00;95123.38;4997257;28;20089;-64
2023/07/25 00:44:11;;;;;;;10.07;5.00;;;19.00;84.70;;;17.81;100.00;95114.84;4981474;28;20102;-64
2023/07/25 00:46:37;;;;;;;7.13;4.97;;;19.00;84.70;;;17.79;100.00;95111.66;4976581;28;20413;-64
2023/07/25 00:49:04;;;;;;;6.05;5.07;;;18.90;84.70;;;17.76;100.00;95118.31;5012343;28;20692;-64
2023/07/25 00:51:30;;;;;;;9.23;5.57;;;18.90;84.90;;;17.74;100.00;95110.56;5010688;28;20034;-64
2023/07/25 00:53:56;;;;;;;7.55;4.88;;;18.80;84.90;;;17.74;100.00;95110.56;4997610;28;20066;-64
2023/07/25 00:56:21;;;;;;;5.82;4.80;;;18.80;85.00;;;17.71;100.00;95112.97;4995706;28;20409;-64
2023/07/25 00:58:47;;;;;;;7.45;5.07;;;18.80;85.00;;;17.70;100.00;95108.69;4994106;28;20026;-64
2023/07/25 01:01:13;;;;;;;8.15;5.28;;;18.80;85.10;;;17.69;100.00;95109.75;5010320;28;20037;-64
2023/07/25 01:03:39;;;;;;;9.48;5.90;;;18.80;85.10;;;17.65;100.00;95101.47;4988761;28;20468;-64
2023/07/25 01:06:09;;;;;;;7.75;5.70;;;18.70;85.30;;;17.62;100.00;95101.94;4991691;28;20485;-64
2023/07/25 01:08:49;;;;;;;10.05;5.55;;;18.70;85.40;;;17.63;100.00;95092.13;5015509;28;20580;-64
2023/07/25 01:11:15;;;;;;;;;;;18.70;85.30;;;17.61;100.00;95092.38;4979649;28;20481;-64
2023/07/25 01:13:41;;;;;;;5.53;4.90;;;18.80;85.30;;;17.58;100.00;95090.22;4996874;28;19993;-64
2023/07/25 01:16:08;;;;;;;9.25;5.90;;;18.70;85.30;;;17.58;100.00;95087.56;4973764;28;20109;-64
2023/07/25 01:18:34;;;;;;;8.05;5.63;;;18.70;85.30;;;17.57;100.00;95085.97;4996492;28;20029;-64
2023/07/25 01:21:00;;;;;;;8.77;5.35;;;18.70;85.30;;;17.54;100.00;95078.53;5007289;28;20053;-64
2023/07/25 01:23:26;;;;;;;9.82;5.45;;;18.70;85.40;;;17.54;100.00;95078.53;4997885;28;20542;-64
2023/07/25 01:25:51;;;;;;;7.75;5.55;;;18.70;85.50;;;17.53;100.00;95087.56;4973961;28;20500;-65
2023/07/25 01:28:17;;;;;;;10.32;5.95;;;18.60;85.40;;;17.54;100.00;95083.03;5012967;28;20072;-65
2023/07/25 01:30:43;;;;;;;7.40;5.35;;;18.60;85.40;;;17.51;100.00;95073.72;5008947;28;20069;-64
2023/07/25 01:33:08;;;;;;;13.48;6.60;;;18.70;85.50;;;17.52;100.00;95085.16;5010877;28;20103;-64
2023/07/25 01:35:34;;;;;;;11.25;5.45;;;18.60;85.50;;;17.49;100.00;95075.84;5026189;28;20065;-64
2023/07/25 01:38:00;;;;;;;8.55;5.68;;;18.60;85.50;;;17.49;100.00;95075.84;4997485;28;20072;-64
2023/07/25 01:40:26;;;;;;;8.05;5.90;;;18.60;85.50;;;17.50;100.00;95088.06;4985232;28;20120;-64
2023/07/25 01:42:51;;;;;;;8.88;5.45;;;18.60;85.20;;;17.50;100.00;95087.28;4980406;28;20538;-64
2023/07/25 01:45:17;;;;;;;7.38;5.25;;;18.60;85.20;;;17.49;100.00;95102.41;5010996;28;20880;-64
2023/07/25 01:47:43;;;;;;;10.50;5.40;;;18.60;85.40;;;17.48;100.00;95095.50;4979622;28;20064;-64
2023/07/25 01:50:09;;;;;;;10.70;5.75;;;18.60;85.40;;;17.46;100.00;95087.00;5012741;28;20081;-64
2023/07/25 01:52:34;;;;;;;7.70;5.07;;;18.60;85.50;;;17.45;100.00;95075.56;5012570;28;20036;-64
2023/07/25 01:55:00;;;;;;;7.40;5.65;;;18.60;85.60;;;17.47;100.00;95069.19;5014290;28;20062;-64
2023/07/25 01:57:26;;;;;;;10.65;6.10;;;18.60;85.40;;;17.47;100.00;95061.19;5008353;28;20073;-64
2023/07/25 01:59:52;;;;;;;7.55;5.65;;;18.60;85.40;;;17.47;100.00;95071.84;5010243;28;20146;-64
2023/07/25 02:02:19;;;;;;;9.27;5.95;;;18.60;85.20;;;17.44;100.00;95091.75;5007896;28;20572;-64
2023/07/25 02:04:46;;;;;;;6.35;5.35;;;18.50;85.30;;;17.38;100.00;95103.41;5001890;28;20377;-64
2023/07/25 02:07:12;;;;;;;8.75;5.38;;;18.40;85.70;;;17.34;100.00;95084.50;4992060;28;20037;-64
2023/07/25 02:09:38;;;;;;;7.53;5.38;;;18.40;86.00;;;17.34;100.00;95086.38;5013523;28;20116;-64
2023/07/25 02:12:05;;;;;;;12.10;5.10;;;18.50;85.80;;;17.35;100.00;95087.97;5008743;28;20029;-64
2023/07/25 02:14:31;;;;;;;6.10;4.18;;;18.50;85.70;;;17.33;100.00;95080.25;5030769;28;20057;-64
2023/07/25 02:16:56;;;;;;;6.60;5.35;;;18.40;85.70;;;17.31;100.00;95073.59;5010375;28;20037;-64
2023/07/25 02:19:22;;;;;;;7.32;5.07;;;18.40;85.70;;;17.29;100.00;95054.44;4996876;28;20120;-64
2023/07/25 02:21:48;;;;;;;7.00;4.70;;;18.40;85.70;;;17.28;100.00;95032.38;5007103;28;20053;-64
2023/07/25 02:24:14;;;;;;;6.45;4.38;;;18.40;85.80;;;17.28;100.00;95031.56;4998527;28;20030;-64
2023/07/25 02:26:39;;;;;;;6.88;4.72;;;18.40;85.70;;;17.28;100.00;95031.56;5007023;28;20492;-64
2023/07/25 02:29:05;;;;;;;8.00;4.82;;;18.40;86.00;;;17.31;100.00;95015.13;5010082;28;20115;-64
2023/07/25 02:31:31;;;;;;;8.10;4.57;;;18.40;85.50;;;17.31;100.00;95009.81;5008358;28;20057;-64
2023/07/25 02:33:56;;;;;;;7.88;4.82;;;18.50;85.60;;;17.33;100.00;95013.00;5013010;28;20049;-64
2023/07/25 02:36:22;;;;;;;7.85;4.85;;;18.60;85.80;;;17.34;100.00;94996.00;4993341;28;20073;-64
2023/07/25 02:38:48;;;;;;;9.23;4.78;;;18.60;85.80;;;17.33;100.00;94986.41;4960884;28;20080;-64
2023/07/25 02:41:17;;;;;;;7.88;4.63;;;18.60;85.90;;;17.34;100.00;94993.34;5009518;28;20077;-64
2023/07/25 02:43:42;;;;;;;9.30;4.93;;;18.60;85.80;;;17.33;100.00;94997.84;5009161;28;20527;-64
2023/07/25 02:46:08;;;;;;;6.00;4.45;;;18.50;85.60;;;17.35;100.00;95005.56;4994885;28;20054;-64
2023/07/25 02:48:34;;;;;;;5.30;4.30;;;18.60;85.60;;;17.36;100.00;95013.28;5010805;28;20119;-64
2023/07/25 02:50:59;;;;;;;9.55;4.65;;;18.60;85.70;;;17.37;100.00;95024.72;4977591;28;20054;-64
2023/07/25 02:53:25;;;;;;;10.38;4.80;;;18.60;85.60;;;17.36;100.00;95028.44;5007319;28;20070;-64
2023/07/25 02:55:51;;;;;;;6.35;4.88;;;18.60;85.50;;;17.36;100.00;95028.44;5011804;28;20064;-64
2023/07/25 02:58:17;;;;;;;7.60;4.95;;;18.60;85.50;;;17.35;100.00;95022.31;5007422;28;20127;-64
2023/07/25 03:00:43;;;;;;;7.57;4.90;;;18.60;85.60;;;17.33;100.00;95020.97;4981754;28;20493;-64
2023/07/25 03:03:09;;;;;;;7.43;4.63;;;18.50;85.80;;;17.33;100.00;95016.47;5008261;28;20082;-64
2023/07/25 03:05:34;;;;;;;5.68;4.68;;;18.50;85.60;;;17.31;100.00;95005.28;4994517;28;20779;-64
2023/07/25 03:08:00;;;;;;;6.25;4.18;;;18.50;85.70;;;17.32;100.00;94995.44;4986392;28;20469;-64
2023/07/25 03:10:26;;;;;;;6.05;4.72;;;18.50;85.40;;;17.31;100.00;94988.53;5009404;28;20072;-64
2023/07/25 03:12:52;;;;;;;9.02;4.82;;;18.60;85.50;;;17.33;100.00;94991.72;5002359;28;20129;-63
2023/07/25 03:15:19;;;;;;;8.30;4.68;;;18.60;85.60;;;17.35;100.00;95000.25;5008221;28;20050;-64
2023/07/25 03:17:44;;;;;;;7.45;4.50;;;18.60;85.60;;;17.34;100.00;94999.44;5016986;28;20152;-65
2023/07/25 03:20:11;;;;;;;5.15;4.15;;;18.60;85.60;;;17.37;100.00;95011.41;4995276;28;20512;-63
2023/07/25 03:22:36;;;;;;;6.22;4.45;;;18.60;85.80;;;17.38;100.00;95015.69;5013192;28;20412;-63
2023/07/25 03:25:02;;;;;;;6.68;4.57;;;18.60;85.60;;;17.38;100.00;95013.03;4978762;28;20041;-64
2023/07/25 03:27:28;;;;;;;6.22;4.30;;;18.60;85.40;;;17.40;100.00;95008.25;4999748;28;20041;-63
2023/07/25 03:29:54;;;;;;;6.72;4.50;;;18.60;85.60;;;17.38;100.00;94994.41;5000436;28;20100;-63
2023/07/25 03:32:19;;;;;;;9.25;4.18;;;18.60;85.20;;;17.38;100.00;94989.09;4997121;28;20068;-63
2023/07/25 03:34:45;;;;;;;7.55;5.20;;;18.60;85.30;;;17.37;100.00;94990.16;5021468;28;20077;-63
2023/07/25 03:37:11;;;;;;;8.93;4.53;;;18.60;85.50;;;17.36;100.00;94996.53;5012675;28;20103;-63
2023/07/25 03:39:36;;;;;;;7.35;4.43;;;18.60;85.60;;;17.38;100.00;94994.41;5011499;28;20065;-63
2023/07/25 03:42:02;;;;;;;6.70;4.38;;;18.60;85.60;;;17.38;100.00;94987.25;5014963;28;20099;-64
2023/07/25 03:44:28;;;;;;;7.40;4.57;;;18.60;85.60;;;17.37;100.00;94995.47;4998553;28;20104;-63
2023/07/25 03:46:54;;;;;;;5.47;4.57;;;18.60;85.20;;;17.38;100.00;94999.72;4997857;28;20026;-64
2023/07/25 03:49:20;;;;;;;8.48;4.95;;;18.60;85.00;;;17.34;100.00;94996.78;5013107;28;20568;-63
2023/07/25 03:51:47;;;;;;;6.35;4.70;;;18.60;85.00;;;17.33;100.00;94989.06;5016101;28;20069;-64
2023/07/25 03:54:14;;;;;;;6.53;4.55;;;18.60;85.20;;;17.34;100.00;94986.16;4999078;28;20061;-64
2023/07/25 03:56:40;;;;;;;5.85;4.20;;;18.60;85.30;;;17.32;100.00;94984.81;4995204;28;20038;-63
2023/07/25 03:59:05;;;;;;;6.20;4.78;;;18.60;85.60;;;17.30;100.00;94973.66;4979347;28;20029;-63
2023/07/25 04:01:31;;;;;;;8.80;5.03;;;18.50;85.80;;;17.32;100.00;94975.00;5011087;28;20069;-63
2023/07/25 04:03:57;;;;;;;8.18;4.80;;;18.60;85.60;;;17.34;100.00;94977.38;5030754;28;20061;-64
2023/07/25 04:06:22;;;;;;;7.57;4.80;;;18.60;85.50;;;17.32;100.00;94980.31;4995846;28;20129;-63
2023/07/25 04:08:48;;;;;;;9.68;5.63;;;18.60;85.50;;;17.33;100.00;94986.41;5005512;28;20033;-64
2023/07/25 04:11:14;;;;;;;8.43;4.93;;;18.60;85.30;;;17.31;100.00;94983.22;5026723;28;20057;-63
2023/07/25 04:13:40;;;;;;;11.82;6.00;;;18.60;85.40;;;17.31;100.00;94993.84;4983490;28;20034;-65
2023/07/25 04:16:06;;;;;;;6.93;5.03;;;18.60;85.40;;;17.30;100.00;94993.06;5010919;28;20029;-67
2023/07/25 04:18:31;;;;;;;6.05;4.60;;;18.60;85.30;;;17.26;100.00;94997.28;4996170;28;20129;-66
2023/07/25 04:20:57;;;;;;;6.55;5.07;;;18.50;85.30;;;17.24;100.00;94994.09;4995154;28;20038;-69
2023/07/25 04:23:23;;;;;;;7.30;5.38;;;18.60;85.50;;;17.25;100.00;95000.22;4992177;28;20517;-72
2023/07/25 04:25:49;;;;;;;6.50;4.70;;;18.60;85.70;;;17.26;100.00;94996.50;5024789;28;20745;-64
2023/07/25 04:28:15;;;;;;;8.52;5.85;;;18.50;85.60;;;17.24;100.00;94999.41;5008798;28;20061;-64
2023/07/25 04:30:41;;;;;;;12.23;5.25;;;18.50;85.60;;;17.24;100.00;95009.25;5027876;28;20096;-64
2023/07/25 04:33:06;;;;;;;7.63;4.53;;;18.50;85.50;;;17.25;100.00;95011.63;5011099;28;20069;-64
2023/07/25 04:35:32;;;;;;;6.88;5.00;;;18.60;85.60;;;17.27;100.00;95008.72;4964691;28;20062;-65
2023/07/25 04:37:58;;;;;;;6.82;4.63;;;18.60;85.70;;;17.27;100.00;95004.19;5011018;28;20040;-64
2023/07/25 04:40:25;;;;;;;5.88;4.93;;;18.60;85.50;;;17.28;100.00;95020.94;5009699;28;20042;-64
2023/07/25 04:42:50;;;;;;;8.75;5.13;;;18.60;85.50;;;17.29;100.00;95023.34;5021704;28;20098;-65
2023/07/25 04:45:16;;;;;;;6.78;4.50;;;18.60;85.30;;;17.29;100.00;95023.34;4996968;28;20085;-64
2023/07/25 04:47:42;;;;;;;6.22;4.60;;;18.60;85.10;;;17.30;100.00;95018.84;5018803;28;20535;-64
2023/07/25 04:50:08;;;;;;;5.75;4.57;;;18.60;85.20;;;17.33;100.00;95007.69;4979362;28;20433;-65
2023/07/25 04:52:34;;;;;;;6.47;4.82;;;18.60;85.20;;;17.34;100.00;95009.28;4992573;28;20035;-65
2023/07/25 04:55:00;;;;;;;8.02;4.95;;;18.70;85.10;;;17.35;100.00;95001.03;5019021;28;20461;-64
2023/07/25 04:57:26;;;;;;;7.10;5.35;;;18.70;85.30;;;17.35;100.00;95000.25;5008629;28;20457;-64
2023/07/25 04:59:52;;;;;;;6.07;4.85;;;18.60;85.60;;;17.36;100.00;94989.34;5015553;28;20076;-65
2023/07/25 05:02:19;;;;;;;8.38;5.38;;;18.60;85.50;;;17.36;100.00;94986.69;4992993;28;20034;-65
2023/07/25 05:04:45;;;;;;;8.15;5.47;;;18.60;85.60;;;17.38;100.00;94981.91;5013912;28;20064;-64
2023/07/25 05:07:10;;;;;;;8.18;5.38;;;18.70;85.40;;;17.39;100.00;94985.38;5010187;28;20042;-64
2023/07/25 05:09:36;;;;;;;7.22;5.20;;;18.70;85.40;;;17.37;100.00;94976.88;5032926;28;20080;-64
2023/07/25 05:12:04;;;;;;;8.65;4.97;;;18.70;85.70;;;17.38;100.00;94979.25;4978923;28;20041;-64
2023/07/25 05:14:30;;;;;;;6.70;5.10;;;18.70;85.30;;;17.38;100.00;94979.25;5028061;28;20037;-64
2023/07/25 05:16:56;;;;;;;7.50;5.00;;;18.70;85.30;;;17.38;100.00;94973.16;5021631;28;20030;-65
2023/07/25 05:19:23;;;;;;;6.78;4.95;;;18.70;85.10;;;17.39;100.00;94980.06;5027960;28;20121;-65
2023/07/25 05:21:49;;;;;;;7.03;4.78;;;18.70;84.80;;;17.40;100.00;94976.34;5009696;28;20056;-66
2023/07/25 05:24:15;;;;;;;6.00;4.32;;;18.80;84.60;;;17.40;100.00;94971.03;4963021;28;20120;-65
2023/07/25 05:26:41;;;;;;;6.18;4.50;;;18.70;84.40;;;17.37;100.00;94968.88;5010938;28;20517;-68
2023/07/25 05:29:07;;;;;;;6.18;4.35;;;18.70;84.50;;;17.38;100.00;94951.88;5011096;28;20041;-67
2023/07/25 05:31:33;;;;;;;8.55;4.50;;;18.60;84.40;;;17.36;100.00;94940.72;4990720;28;20034;-67
2023/07/25 05:33:59;;;;;;;6.07;4.75;;;18.60;84.30;;;17.37;100.00;94944.97;4994635;28;20037;-68
2023/07/25 05:36:24;;;;;;;6.18;4.70;;;18.70;84.40;;;17.35;100.00;94939.13;4963924;28;20053;-69
2023/07/25 05:38:50;;;;;;;6.20;4.60;;;18.60;84.80;;;17.35;100.00;94936.47;5017033;28;20058;-68
2023/07/25 05:41:16;;;;;;;9.07;4.60;;;18.70;84.90;;;17.34;100.00;94942.84;4993549;28;20038;-68
2023/07/25 05:43:41;;;;;;;8.82;4.18;;;18.60;84.50;;;17.31;100.00;94941.50;5007253;28;20058;-64
2023/07/25 05:46:08;;;;;;;9.02;5.07;;;18.60;84.50;;;17.29;100.00;94935.63;5014629;28;20045;-65
2023/07/25 05:48:34;;;;;;;7.90;4.40;;;18.60;84.50;;;17.25;100.00;94934.56;5007824;28;20502;-68
2023/07/25 05:51:00;;;;;;;4.78;3.90;;;18.50;84.50;;;17.24;100.00;94937.47;5010136;28;20171;-69
2023/07/25 05:53:25;;;;;;;10.18;4.00;;;18.40;83.80;;;17.23;100.00;94918.09;4974275;28;20119;-71
2023/07/25 05:55:51;;;;;;;6.70;4.20;;;18.50;84.20;;;17.22;100.00;94905.06;4997956;28;20132;-70
2023/07/25 05:58:17;;;;;;;7.10;4.18;;;18.50;83.50;;;17.21;100.00;94890.19;4974678;28;20091;-69
2023/07/25 06:00:43;;;;;;;6.20;4.22;;;18.50;83.50;;;17.21;100.00;94877.69;5028091;28;20053;-70
2023/07/25 06:03:14;;;;;;;6.35;4.30;;;18.50;83.90;;;17.23;100.00;94869.44;4961271;28;20033;-72
2023/07/25 06:05:39;;;;;;;6.65;4.45;;;18.50;83.70;;;17.25;100.00;94862.00;5014547;28;20583;-68
2023/07/25 06:08:06;;;;;;;5.65;4.00;;;18.60;83.40;;;17.28;100.00;94856.97;4993045;28;20060;-68
2023/07/25 06:10:31;;;;;;;5.30;3.60;;;18.60;83.30;;;17.31;100.00;94876.91;4994689;28;20095;-72
2023/07/25 06:12:57;;;;;;;7.53;3.97;;;18.70;82.70;;;17.36;100.00;94890.22;4977531;28;20159;-68
2023/07/25 06:15:23;;;;;;;6.85;4.00;;;18.80;82.40;;;17.40;100.00;94902.72;5000179;28;20030;-68
2023/07/25 06:17:49;;;;;;;6.13;3.95;;;18.80;82.50;;;17.44;100.00;94897.69;5009385;28;20037;-67
2023/07/25 06:20:15;;;;;;;5.32;3.78;;;18.90;82.40;;;17.45;100.00;94870.06;5010411;28;20064;-68
2023/07/25 06:22:41;;;;;;;6.78;3.80;;;19.00;82.40;;;17.48;100.00;94853.59;4977798;28;20038;-67
2023/07/25 06:25:07;;;;;;;4.95;3.50;;;19.00;82.20;;;17.52;100.00;94859.16;4994286;28;20120;-66
2023/07/25 06:27:33;;;;;;;10.30;3.90;;;19.10;81.00;;;17.57;100.00;94859.16;4977679;28;20112;-67
2023/07/25 06:30:00;;;;;;;4.55;3.38;;;19.10;81.40;;;17.63;100.00;94852.78;4993189;28;20039;-69
2023/07/25 06:32:26;;;;;;;7.43;3.80;;;19.20;81.10;;;17.69;100.00;94847.28;4992562;28;20038;-66
2023/07/25 06:34:52;;;;;;;5.90;3.55;;;19.30;80.30;;;17.74;100.00;94849.13;5015449;28;20163;-64
2023/07/25 06:37:18;;;;;;;5.75;3.15;;;19.40;79.80;;;17.83;100.00;94855.53;5013588;28;20034;-65
2023/07/25 06:39:43;;;;;;;7.20;3.28;;;19.50;80.00;;;17.91;100.00;94857.69;5000981;28;20504;-66
2023/07/25 06:42:09;;;;;;;4.75;3.30;;;19.60;79.40;;;17.98;100.00;94852.09;5015419;28;20084;-67
2023/07/25 06:44:35;;;;;;;4.40;3.15;;;19.60;79.10;;;18.04;100.00;94843.81;4991133;28;20556;-64
2023/07/25 06:47:00;;;;;;;5.47;2.88;;;19.70;77.70;;;18.11;100.00;94838.25;5013731;28;20551;-63
2023/07/25 06:49:26;;;;;;;5.25;3.28;;;19.80;77.90;;;18.15;100.00;94851.84;5008252;28;20561;-64
2023/07/25 06:51:55;;;;;;;5.30;3.10;;;19.90;77.50;;;18.24;100.00;94856.34;4997154;28;21693;-64
2023/07/25 06:54:21;;;;;;;5.80;3.25;;;20.00;77.70;;;18.30;100.00;94863.25;4994003;28;20045;-63
2023/07/25 06:56:47;;;;;;;6.40;2.85;;;19.90;77.60;;;18.34;100.00;94867.00;4996351;28;20030;-65
2023/07/25 06:59:13;;;;;;;5.70;3.45;;;19.80;77.10;;;18.40;100.00;94867.00;4960853;28;20061;-64
2023/07/25 07:01:39;;;;;;;7.60;3.95;;;20.00;77.50;;;18.44;100.00;94868.03;4995780;28;20030;-68
2023/07/25 07:04:04;;;;;;;6.60;3.15;;;20.10;77.50;;;18.50;100.00;94880.28;5022511;28;20060;-68
2023/07/25 07:06:30;;;;;;;4.65;3.28;;;20.10;77.50;;;18.53;100.00;94883.19;5013403;28;20409;-68
2023/07/25 07:08:56;;;;;;;5.18;3.40;;;20.10;77.00;;;18.52;100.00;94891.44;5006333;28;20049;-69
2023/07/25 07:11:22;;;;;;;7.65;3.85;;;20.00;76.30;;;18.52;100.00;94888.78;4989698;28;20070;-68
2023/07/25 07:13:47;;;;;;;6.45;3.40;;;20.00;76.80;;;18.51;100.00;94901.31;5006037;28;20131;-69
2023/07/25 07:16:14;;;;;;;4.95;3.70;;;19.90;76.90;;;18.50;100.00;94893.59;5000450;28;21572;-70
2023/07/25 07:18:39;;;;;;;4.55;3.45;;;19.90;77.40;;;18.49;100.00;94895.47;4976767;28;20533;-69
2023/07/25 07:21:05;;;;;;;4.82;3.67;;;19.90;76.70;;;18.53;100.00;94887.72;4974463;28;20097;-65
2023/07/25 07:23:31;;;;;;;5.68;3.58;;;20.10;77.10;;;18.62;100.00;94894.94;4960815;28;20038;-65
2023/07/25 07:25:56;;;;;;;6.57;3.70;;;20.30;77.50;;;18.67;100.00;94915.44;5002345;28;20159;-66
2023/07/25 07:28:22;;;;;;;4.88;3.70;;;20.30;76.50;;;18.73;100.00;94934.88;4996186;28;20042;-64
2023/07/25 07:30:51;;;;;;;6.50;3.30;;;20.40;76.50;;;18.80;100.00;94919.44;4997671;28;20117;-67
2023/07/25 07:33:18;;;;;;;6.88;3.83;;;20.60;76.30;;;18.87;100.00;94919.94;5008555;28;20125;-65
2023/07/25 07:35:44;;;;;;;4.47;3.50;;;20.60;75.80;;;18.91;100.00;94921.81;4990078;28;20053;-65
2023/07/25 07:38:09;;;;;;;5.88;4.25;;;20.60;75.80;;;18.96;100.00;94945.78;4995252;28;20450;-67
2023/07/25 07:40:35;;;;;;;7.05;4.25;;;20.60;76.10;;;18.98;100.00;94951.63;5000312;28;20387;-65
2023/07/25 07:43:01;;;;;;;6.47;3.95;;;20.60;76.10;;;18.91;100.00;94964.44;4987942;28;20065;-65
2023/07/25 07:45:28;;;;;;;5.97;3.70;;;20.30;76.90;;;18.88;100.00;94959.66;4991792;28;20034;-65
2023/07/25 07:47:54;;;;;;;4.53;3.72;;;20.30;77.10;;;18.88;100.00;94961.50;5024205;28;20030;-65
2023/07/25 07:50:20;;;;;;;7.80;3.63;;;20.40;76.90;;;18.94;100.00;94961.22;4993712;28;20038;-65
2023/07/25 07:52:46;;;;;;;6.38;3.78;;;20.50;76.50;;;18.98;100.00;94959.63;5014410;28;20063;-65
2023/07/25 07:55:12;;;;;;;6.18;3.47;;;20.60;76.00;;;19.04;100.00;94952.44;5025094;28;20095;-64
2023/07/25 07:57:45;;;;;;;5.18;3.67;;;20.80;76.10;;;19.11;100.00;94952.16;5033157;28;20062;-64
2023/07/25 08:00:13;;;;;;;5.32;3.40;;;20.70;75.80;;;19.14;100.00;94940.94;4994844;28;20120;-65
2023/07/25 08:02:40;;;;;;;6.43;3.58;;;20.70;75.50;;;19.20;100.00;94951.31;5016667;28;20036;-65
2023/07/25 08:05:06;;;;;;;4.50;3.42;;;20.90;75.60;;;19.22;100.00;94937.72;5031490;28;20377;-65
2023/07/25 08:07:32;;;;;;;5.82;3.70;;;20.80;75.00;;;19.21;100.00;94928.91;4996193;28;20228;-65
2023/07/25 08:09:58;;;;;;;5.25;3.60;;;20.70;75.70;;;19.27;100.00;94929.72;4993598;28;20521;-64
2023/07/25 08:12:23;;;;;;;7.28;3.65;;;20.90;75.60;;;19.32;100.00;94919.03;4994543;28;20492;-65
2023/07/25 08:14:49;;;;;;;6.32;3.63;;;21.00;75.70;;;19.36;100.00;94938.75;4978164;28;20489;-65
2023/07/25 08:17:15;;;;;;;4.18;3.50;;;21.00;75.10;;;19.41;100.00;94933.38;4987233;28;20046;-64
2023/07/25 08:19:41;;;;;;;4.20;3.40;;;21.00;75.30;;;19.46;100.00;94927.22;4981588;28;20069;-65
2023/07/25 08:22:07;;;;;;;7.47;3.60;;;21.00;75.50;;;19.49;100.00;94932.84;4994578;28;20057;-63
2023/07/25 08:24:33;;;;;;;4.43;3.50;;;21.10;75.50;;;19.51;100.00;94930.69;4982146;28;20513;-62
2023/07/25 08:26:59;;;;;;;7.32;3.60;;;21.00;75.70;;;19.47;100.00;94942.19;4993474;28;20115;-64
2023/07/25 08:29:25;;;;;;;5.85;3.53;;;20.80;76.40;;;19.42;100.00;94932.31;5033784;28;20100;-62
2023/07/25 08:31:51;;;;;;;5.70;3.60;;;20.70;77.00;;;19.33;100.00;94931.28;4954959;28;20044;-64
2023/07/25 08:34:17;;;;;;;7.78;3.30;;;20.60;77.20;;;19.30;100.00;94934.50;5042092;28;20046;-66
2023/07/25 08:36:43;;;;;;;4.30;3.50;;;20.60;77.70;;;19.26;100.00;94941.47;4976735;28;20517;-65
2023/07/25 08:39:09;;;;;;;6.00;3.40;;;20.60;77.90;;;19.24;100.00;94947.06;5043324;28;20037;-64
2023/07/25 08:41:45;;;;;;;5.25;3.17;;;20.60;78.30;;;19.17;100.00;94951.06;4992953;28;20131;-63
2023/07/25 08:44:11;;;;;;;7.75;2.75;;;20.30;77.50;;;19.06;100.00;94952.16;4966898;28;20281;-63
2023/07/25 08:46:43;;;;;;;4.45;3.03;;;20.10;77.10;;;18.92;100.00;94939.38;4963457;28;20092;-63
2023/07/25 08:49:10;;;;;;;3.88;2.58;;;19.90;76.80;;;18.79;100.00;94937.28;5031168;28;20030;-63
2023/07/25 08:51:37;;;;;;;3.78;2.72;;;19.70;77.00;;;18.73;100.00;94945.53;4977050;28;20085;-64
2023/07/25 08:54:31;;;;;;;3.38;2.55;;;19.90;77.80;;;18.66;100.00;94935.97;5031490;28;20044;-64
2023/07/25 08:56:58;;;;;;;7.85;3.22;;;19.70;77.80;;;18.58;100.00;94935.69;5006761;28;20463;-64
2023/07/25 08:59:24;;;;;;;6.43;3.10;;;19.70;78.70;;;18.55;100.00;94938.84;5003013;28;20029;-64
2023/07/25 09:01:51;;;;;;;4.90;2.90;;;19.70;78.50;;;18.52;100.00;94947.38;5008452;28;20494;-64
2023/07/25 09:04:18;;;;;;;4.60;2.90;;;19.80;78.80;;;18.48;100.00;94943.66;5013267;28;20535;-63
2023/07/25 09:06:44;;;;;;;5.93;2.97;;;19.60;78.90;;;18.48;100.00;94951.66;4992004;28;20042;-65
2023/07/25 09:09:10;;;;;;;4.05;2.60;;;19.70;79.30;;;18.48;100.00;94955.09;5017261;28;20030;-63
2023/07/25 09:11:36;;;;;;;3.20;2.55;;;19.70;78.50;;;18.44;100.00;94964.69;5005610;28;20042;-64
2023/07/25 09:14:02;;;;;;;3.35;2.45;;;19.70;78.20;;;18.39;100.00;94978.00;5015952;28;20038;-64
2023/07/25 09:16:27;;;;;;;4.25;2.85;;;19.50;77.10;;;18.32;100.00;94978.25;4977230;28;20042;-64
2023/07/25 09:18:53;;;;;;;3.97;2.15;;;19.50;77.40;;;18.30;100.00;94987.56;5008261;28;20042;-66
2023/07/25 09:21:19;;;;;;;4.22;2.67;;;19.50;77.60;;;18.26;100.00;94997.94;5030237;28;20030;-63
2023/07/25 09:23:57;;;;;;;4.43;2.72;;;19.40;77.40;;;18.25;100.00;94988.34;4996379;28;20121;-63
2023/07/25 09:26:26;;;;;;;4.05;2.50;;;19.40;77.60;;;18.24;100.00;94981.44;5014046;28;20064;-63
2023/07/25 09:28:54;;;;;;;3.00;2.28;;;19.50;77.50;;;18.24;100.00;94976.13;4988071;28;20034;-64
2023/07/25 09:31:20;;;;;;;3.75;2.35;;;19.50;76.80;;;18.26;100.00;94975.84;4993976;28;20034;-64
2023/07/25 09:33:48;;;;;;;3.30;2.28;;;19.60;76.30;;;18.25;100.00;94977.72;5011570;28;20053;-65
2023/07/25 09:36:14;;;;;;;3.28;2.38;;;19.60;75.50;;;18.32;100.00;94962.28;5024128;28;20513;-63
2023/07/25 09:38:54;;;;;;;4.65;2.40;;;19.80;75.20;;;18.41;100.00;94964.44;4996129;28;20034;-63
2023/07/25 09:41:23;;;;;;;4.18;2.05;;;19.80;73.70;;;18.41;100.00;94954.56;4993653;28;20030;-63
2023/07/25 09:43:52;;;;;;;2.88;1.95;;;19.80;72.80;;;18.41;100.00;94954.56;5007894;28;20042;-64
2023/07/25 09:46:18;;;;;;;4.80;2.00;;;19.70;73.20;;;18.46;100.00;94951.91;5007209;28;20025;-63
2023/07/25 09:48:51;;;;;;;4.47;2.30;;;19.80;73.20;;;18.49;100.00;94955.91;4980367;28;20079;-67
2023/07/25 09:51:16;;;;;;;2.33;2.00;;;19.80;71.60;;;18.50;100.00;94965.50;5008960;28;20050;-65
2023/07/25 09:53:43;;;;;;;3.13;1.98;;;19.90;72.60;;;18.52;100.00;94958.03;5008217;28;20574;-65
2023/07/25 09:56:09;;;;;;;2.70;2.22;;;19.90;72.60;;;18.58;100.00;94964.97;5013628;28;20104;-65
2023/07/25 09:58:35;;;;;;;3.90;2.30;;;20.10;71.80;;;18.60;100.00;94962.84;4980292;28;20470;-66
2023/07/25 10:01:03;;;;;;;3.70;2.22;;;20.00;71.70;;;18.63;100.00;94960.47;4997168;28;20104;-65
2023/07/25 10:03:29;;;;;;;2.92;2.00;;;20.10;71.30;;;18.67;100.00;94964.19;5026013;28;20029;-65
2023/07/25 10:05:55;;;;;;;3.00;1.83;;;20.10;71.40;;;18.73;100.00;94957.00;5008028;28;20127;-65
2023/07/25 10:08:21;;;;;;;4.03;2.58;;;20.20;71.30;;;18.78;100.00;94948.97;5008942;28;20061;-65